Time,TemperatureF,DewpointF,PressureIn,WindDirection,WindDirectionDegrees,WindSpeedMPH,WindSpeedGustMPH,Humidity,HourlyPrecipIn,Conditions,Clouds,dailyrainin,SoftwareType,DateUTC
2013-04-05 00:02:00,54.0,-99.9,29.95,NNW,331,13.0,18.0,-999,-99.99,,,-99.99,,2013-04-05 05:02:00,
2013-04-05 00:13:00,54.0,-99.9,29.95,NNW,329,15.0,19.0,-999,-99.99,,,-99.99,,2013-04-05 05:13:00,
2013-04-05 00:22:00,54.0,-99.9,29.95,North,-999,-999.0,-999.0,-999,-99.99,,,-99.99,,2013-04-05 05:22:00,
2013-04-05 00:32:00,54.0,-99.9,29.96,NNW,334,14.0,18.0,-999,-99.99,,,-99.99,,2013-04-05 05:32:00,
2013-04-05 00:42:00,54.0,-99.9,29.96,NW,322,14.0,19.0,-999,-99.99,,,-99.99,,2013-04-05 05:42:00,
2013-04-05 00:53:00,54.0,-99.9,29.96,NW,325,13.0,15.0,-999,-99.99,,,-99.99,,2013-04-05 05:53:00,
2013-04-05 01:03:00,54.0,-99.9,29.96,NNW,335,16.0,21.0,-999,-99.99,,,-99.99,,2013-04-05 06:03:00,
2013-04-05 01:12:00,54.0,-99.9,29.96,NNW,333,13.0,17.0,-999,-99.99,,,-99.99,,2013-04-05 06:12:00,
2013-04-05 01:22:00,53.0,-99.9,29.96,NW,325,10.0,14.0,-999,-99.99,,,-99.99,,2013-04-05 06:22:00,
2013-04-05 01:32:00,53.0,-99.9,29.96,NW,324,11.0,16.0,-999,-99.99,,,-99.99,,2013-04-05 06:32:00,
2013-04-05 01:42:00,53.0,-99.9,29.96,NW,319,11.0,16.0,-999,-99.99,,,-99.99,,2013-04-05 06:42:00,
2013-04-05 01:52:00,53.0,-99.9,29.96,NW,317,14.0,19.0,-999,-99.99,,,-99.99,,2013-04-05 06:52:00,
2013-04-05 02:03:00,52.0,-99.9,29.95,NNW,329,15.0,19.0,-999,-99.99,,,-99.99,,2013-04-05 07:03:00,
2013-04-05 02:12:00,52.0,-99.9,29.96,NNW,330,15.0,19.0,-999,-99.99,,,-99.99,,2013-04-05 07:12:00,
2013-04-05 02:23:00,52.0,-99.9,29.96,North,-999,-999.0,-999.0,-999,-99.99,,,-99.99,,2013-04-05 07:23:00,
2013-04-05 02:32:00,52.0,-99.9,29.95,NNW,334,13.0,21.0,-999,-99.99,,,-99.99,,2013-04-05 07:32:00,
2013-04-05 02:42:00,52.0,-99.9,29.96,NNW,338,14.0,16.0,-999,-99.99,,,-99.99,,2013-04-05 07:42:00,
2013-04-05 02:53:00,52.0,-99.9,29.96,NW,322,12.0,15.0,-999,-99.99,,,-99.99,,2013-04-05 07:53:00,
2013-04-05 03:03:00,52.0,-99.9,29.96,NW,321,12.0,15.0,-999,-99.99,,,-99.99,,2013-04-05 08:03:00,
2013-04-05 03:13:00,52.0,-99.9,29.97,NNW,327,11.0,18.0,-999,-99.99,,,-99.99,,2013-04-05 08:13:00,
2013-04-05 03:23:00,52.0,-99.9,29.96,NW,325,13.0,17.0,-999,-99.99,,,-99.99,,2013-04-05 08:23:00,
2013-04-05 03:33:00,52.0,-99.9,29.96,NNW,333,16.0,22.0,-999,-99.99,,,-99.99,,2013-04-05 08:33:00,
2013-04-05 03:43:00,52.0,-99.9,29.96,NNW,333,14.0,19.0,-999,-99.99,,,-99.99,,2013-04-05 08:43:00,
2013-04-05 03:52:00,52.0,-99.9,29.97,North,-999,-999.0,-999.0,-999,-99.99,,,-99.99,,2013-04-05 08:52:00,
2013-04-05 04:02:00,52.0,-99.9,29.97,NNW,331,14.0,20.0,-999,-99.99,,,-99.99,,2013-04-05 09:02:00,
2013-04-05 04:13:00,51.0,-99.9,29.98,NNW,327,14.0,18.0,-999,-99.99,,,-99.99,,2013-04-05 09:13:00,
2013-04-05 04:22:00,51.0,-99.9,29.98,NW,326,12.0,17.0,-999,-99.99,,,-99.99,,2013-04-05 09:22:00,
2013-04-05 04:33:00,51.0,-99.9,29.98,NNW,330,13.0,17.0,-999,-99.99,,,-99.99,,2013-04-05 09:33:00,
2013-04-05 04:43:00,51.0,-99.9,29.98,NNW,331,15.0,20.0,-999,-99.99,,,-99.99,,2013-04-05 09:43:00,
2013-04-05 04:53:00,51.0,-99.9,29.98,NW,324,14.0,19.0,-999,-99.99,,,-99.99,,2013-04-05 09:53:00,
2013-04-05 05:03:00,51.0,-99.9,29.99,NW,317,13.0,16.0,-999,-99.99,,,-99.99,,2013-04-05 10:03:00,
2013-04-05 05:13:00,51.0,-99.9,29.99,NW,307,15.0,19.0,-999,-99.99,,,-99.99,,2013-04-05 10:13:00,
2013-04-05 05:23:00,50.0,-99.9,30.00,North,-999,-999.0,-999.0,-999,-99.99,,,-99.99,,2013-04-05 10:23:00,
2013-04-05 05:33:00,50.0,-99.9,29.99,NW,319,15.0,22.0,-999,-99.99,,,-99.99,,2013-04-05 10:33:00,
2013-04-05 05:43:00,50.0,-99.9,29.99,NNW,333,14.0,19.0,-999,-99.99,,,-99.99,,2013-04-05 10:43:00,
2013-04-05 05:53:00,50.0,-99.9,29.99,North,-999,-999.0,-999.0,-999,-99.99,,,-99.99,,2013-04-05 10:53:00,
2013-04-05 06:03:00,50.0,-99.9,30.00,NNW,332,14.0,18.0,-999,-99.99,,,-99.99,,2013-04-05 11:03:00,
2013-04-05 06:13:00,50.0,-99.9,30.00,NNW,338,16.0,20.0,-999,-99.99,,,-99.99,,2013-04-05 11:13:00,
2013-04-05 06:22:00,50.0,-99.9,30.00,North,-999,-999.0,-999.0,-999,-99.99,,,-99.99,,2013-04-05 11:22:00,
2013-04-05 06:33:00,50.0,-99.9,30.00,NW,322,13.0,16.0,-999,-99.99,,,-99.99,,2013-04-05 11:33:00,
2013-04-05 06:42:00,50.0,-99.9,30.01,NNW,329,13.0,18.0,-999,-99.99,,,-99.99,,2013-04-05 11:42:00,
2013-04-05 06:52:00,50.0,-99.9,30.01,North,-999,-999.0,-999.0,-999,-99.99,,,-99.99,,2013-04-05 11:52:00,
2013-04-05 07:02:00,50.0,-99.9,30.01,NNW,330,12.0,17.0,-999,-99.99,,,-99.99,,2013-04-05 12:02:00,
2013-04-05 07:12:00,50.0,-99.9,30.02,NNW,335,15.0,18.0,-999,-99.99,,,-99.99,,2013-04-05 12:12:00,
2013-04-05 07:22:00,50.0,-99.9,30.02,NNW,338,13.0,16.0,-999,-99.99,,,-99.99,,2013-04-05 12:22:00,
2013-04-05 07:32:00,50.0,-99.9,30.02,NNW,337,13.0,17.0,-999,-99.99,,,-99.99,,2013-04-05 12:32:00,
2013-04-05 07:42:00,50.0,-99.9,30.03,NNW,337,12.0,16.0,-999,-99.99,,,-99.99,,2013-04-05 12:42:00,
2013-04-05 07:53:00,50.0,-99.9,30.04,North,-999,-999.0,-999.0,-999,-99.99,,,-99.99,,2013-04-05 12:53:00,
2013-04-05 08:02:00,50.0,-99.9,30.04,NNW,332,10.0,16.0,-999,-99.99,,,-99.99,,2013-04-05 13:02:00,
2013-04-05 08:12:00,50.0,-99.9,30.05,NNW,335,13.0,18.0,-999,-99.99,,,-99.99,,2013-04-05 13:12:00,
2013-04-05 08:23:00,50.0,-99.9,30.05,NNW,337,13.0,18.0,-999,-99.99,,,-99.99,,2013-04-05 13:23:00,
2013-04-05 08:32:00,50.0,-99.9,30.05,NNW,336,13.0,19.0,-999,-99.99,,,-99.99,,2013-04-05 13:32:00,
2013-04-05 08:43:00,50.0,-99.9,30.06,NNW,335,13.0,18.0,-999,-99.99,,,-99.99,,2013-04-05 13:43:00,
2013-04-05 08:53:00,50.0,-99.9,30.06,NNW,338,14.0,17.0,-999,-99.99,,,-99.99,,2013-04-05 13:53:00,
2013-04-05 09:03:00,50.0,-99.9,30.07,NNW,332,14.0,20.0,-999,-99.99,,,-99.99,,2013-04-05 14:03:00,
2013-04-05 09:12:00,50.0,-99.9,30.07,NNW,335,13.0,17.0,-999,-99.99,,,-99.99,,2013-04-05 14:12:00,
2013-04-05 09:23:00,51.0,-99.9,30.07,North,-999,-999.0,-999.0,-999,-99.99,,,-99.99,,2013-04-05 14:23:00,
2013-04-05 09:37:00,51.0,-99.9,30.08,NNW,337,12.0,16.0,-999,-99.99,,,-99.99,,2013-04-05 14:37:00,
2013-04-05 09:43:00,51.0,-99.9,30.08,NNW,343,14.0,16.0,-999,-99.99,,,-99.99,,2013-04-05 14:43:00,
2013-04-05 09:55:00,51.0,-99.9,30.08,NNW,337,14.0,17.0,-999,-99.99,,,-99.99,,2013-04-05 14:55:00,
2013-04-05 10:02:00,51.0,-99.9,30.09,NNW,335,13.0,17.0,-999,-99.99,,,-99.99,,2013-04-05 15:02:00,
2013-04-05 10:13:00,51.0,-99.9,30.09,NNW,332,13.0,18.0,-999,-99.99,,,-99.99,,2013-04-05 15:13:00,
2013-04-05 10:23:00,52.0,-99.9,30.10,North,-999,-999.0,-999.0,-999,-99.99,,,-99.99,,2013-04-05 15:23:00,
2013-04-05 10:34:00,51.0,-99.9,30.10,NNW,337,13.0,18.0,-999,-99.99,,,-99.99,,2013-04-05 15:34:00,
2013-04-05 10:43:00,52.0,-99.9,30.10,NNW,339,13.0,19.0,-999,-99.99,,,-99.99,,2013-04-05 15:43:00,
2013-04-05 10:55:00,52.0,-99.9,30.10,North,-999,-999.0,-999.0,-999,-99.99,,,-99.99,,2013-04-05 15:55:00,
2013-04-05 11:03:00,52.0,-99.9,30.10,NNW,338,15.0,19.0,-999,-99.99,,,-99.99,,2013-04-05 16:03:00,
2013-04-05 11:15:00,53.0,-99.9,30.10,NNW,344,14.0,20.0,-999,-99.99,,,-99.99,,2013-04-05 16:15:00,
2013-04-05 11:23:00,53.0,-99.9,30.10,North,-999,-999.0,-999.0,-999,-99.99,,,-99.99,,2013-04-05 16:23:00,
2013-04-05 11:33:00,52.0,-99.9,30.10,NNW,338,15.0,20.0,-999,-99.99,,,-99.99,,2013-04-05 16:33:00,
2013-04-05 11:43:00,53.0,-99.9,30.10,NNW,348,12.0,16.0,-999,-99.99,,,-99.99,,2013-04-05 16:43:00,
2013-04-05 11:53:00,53.0,-99.9,30.10,NNW,348,14.0,19.0,-999,-99.99,,,-99.99,,2013-04-05 16:53:00,
2013-04-05 12:04:00,53.0,-99.9,30.10,North,351,12.0,16.0,-999,-99.99,,,-99.99,,2013-04-05 17:04:00,
2013-04-05 12:13:00,53.0,-99.9,30.09,North,-999,-999.0,-999.0,-999,-99.99,,,-99.99,,2013-04-05 17:13:00,
2013-04-05 12:24:00,54.0,-99.9,30.09,NNW,340,15.0,20.0,-999,-99.99,,,-99.99,,2013-04-05 17:24:00,
2013-04-05 12:33:00,55.0,-99.9,30.08,NNW,343,12.0,17.0,-999,-99.99,,,-99.99,,2013-04-05 17:33:00,
2013-04-05 12:46:00,56.0,-99.9,30.07,North,5,11.0,16.0,-999,-99.99,,,-99.99,,2013-04-05 17:46:00,
2013-04-05 12:53:00,57.0,-99.9,30.07,North,357,12.0,17.0,-999,-99.99,,,-99.99,,2013-04-05 17:53:00,
2013-04-05 13:03:00,57.0,-99.9,30.07,NNW,341,14.0,18.0,-999,-99.99,,,-99.99,,2013-04-05 18:03:00,
2013-04-05 13:13:00,58.0,-99.9,30.07,North,3,14.0,19.0,-999,-99.99,,,-99.99,,2013-04-05 18:13:00,
2013-04-05 13:23:00,59.0,-99.9,30.07,NNW,335,15.0,22.0,-999,-99.99,,,-99.99,,2013-04-05 18:23:00,
2013-04-05 13:34:00,59.0,-99.9,30.07,NNW,336,15.0,21.0,-999,-99.99,,,-99.99,,2013-04-05 18:34:00,
2013-04-05 13:43:00,59.0,-99.9,30.07,NNW,343,15.0,20.0,-999,-99.99,,,-99.99,,2013-04-05 18:43:00,
2013-04-05 13:53:00,60.0,-99.9,30.06,NNW,340,17.0,21.0,-999,-99.99,,,-99.99,,2013-04-05 18:53:00,
2013-04-05 14:03:00,60.0,-99.9,30.06,North,358,13.0,17.0,-999,-99.99,,,-99.99,,2013-04-05 19:03:00,
2013-04-05 14:14:00,60.0,-99.9,30.05,NNW,343,14.0,21.0,-999,-99.99,,,-99.99,,2013-04-05 19:14:00,
2013-04-05 14:23:00,61.0,-99.9,30.05,North,350,11.0,17.0,-999,-99.99,,,-99.99,,2013-04-05 19:23:00,
2013-04-05 14:34:00,61.0,-99.9,30.05,North,357,12.0,14.0,-999,-99.99,,,-99.99,,2013-04-05 19:34:00,
2013-04-05 14:43:00,62.0,-99.9,30.04,North,6,12.0,17.0,-999,-99.99,,,-99.99,,2013-04-05 19:43:00,
2013-04-05 14:53:00,63.0,-99.9,30.03,North,-999,-999.0,-999.0,-999,-99.99,,,-99.99,,2013-04-05 19:53:00,
2013-04-05 15:03:00,64.0,-99.9,30.03,NNW,339,14.0,20.0,-999,-99.99,,,-99.99,,2013-04-05 20:03:00,
2013-04-05 15:11:00,64.0,-99.9,30.03,NNW,342,13.0,18.0,-999,-99.99,,,-99.99,,2013-04-05 20:11:00,
2013-04-05 15:23:00,65.0,-99.9,30.03,North,356,11.0,15.0,-999,-99.99,,,-99.99,,2013-04-05 20:23:00,
2013-04-05 15:33:00,66.0,-99.9,30.02,North,359,11.0,15.0,-999,-99.99,,,-99.99,,2013-04-05 20:33:00,
2013-04-05 15:43:00,64.0,-99.9,30.02,North,11,14.0,18.0,-999,-99.99,,,-99.99,,2013-04-05 20:43:00,
2013-04-05 15:53:00,65.0,-99.9,30.01,North,5,11.0,14.0,-999,-99.99,,,-99.99,,2013-04-05 20:53:00,
2013-04-05 16:03:00,66.0,-99.9,30.01,North,358,13.0,19.0,-999,-99.99,,,-99.99,,2013-04-05 21:03:00,
2013-04-05 16:13:00,65.0,-99.9,30.01,North,11,13.0,16.0,-999,-99.99,,,-99.99,,2013-04-05 21:13:00,
2013-04-05 16:24:00,66.0,-99.9,30.01,North,10,9.0,12.0,-999,-99.99,,,-99.99,,2013-04-05 21:24:00,
2013-04-05 16:35:00,66.0,-99.9,30.01,North,6,12.0,14.0,-999,-99.99,,,-99.99,,2013-04-05 21:35:00,
2013-04-05 16:44:00,66.0,-99.9,30.02,North,7,13.0,18.0,-999,-99.99,,,-99.99,,2013-04-05 21:44:00,
2013-04-05 16:55:00,66.0,-99.9,30.01,North,3,12.0,15.0,-999,-99.99,,,-99.99,,2013-04-05 21:55:00,
2013-04-05 17:04:00,67.0,-99.9,30.01,North,353,12.0,16.0,-999,-99.99,,,-99.99,,2013-04-05 22:04:00,
2013-04-05 17:13:00,67.0,-99.9,30.01,North,1,11.0,14.0,-999,-99.99,,,-99.99,,2013-04-05 22:13:00,
2013-04-05 17:23:00,67.0,-99.9,30.01,North,359,11.0,17.0,-999,-99.99,,,-99.99,,2013-04-05 22:23:00,
2013-04-05 17:34:00,67.0,-99.9,30.01,North,359,14.0,18.0,-999,-99.99,,,-99.99,,2013-04-05 22:34:00,
2013-04-05 17:44:00,67.0,-99.9,30.01,North,11,11.0,14.0,-999,-99.99,,,-99.99,,2013-04-05 22:44:00,
2013-04-05 17:53:00,68.0,-99.9,30.02,North,-999,-999.0,-999.0,-999,-99.99,,,-99.99,,2013-04-05 22:53:00,
2013-04-05 18:03:00,68.0,-99.9,30.02,North,349,13.0,17.0,-999,-99.99,,,-99.99,,2013-04-05 23:03:00,
2013-04-05 18:13:00,68.0,-99.9,30.02,North,352,13.0,18.0,-999,-99.99,,,-99.99,,2013-04-05 23:13:00,
2013-04-05 18:23:00,68.0,-99.9,30.02,North,352,12.0,16.0,-999,-99.99,,,-99.99,,2013-04-05 23:23:00,
2013-04-05 18:33:00,68.0,-99.9,30.02,NNW,343,12.0,15.0,-999,-99.99,,,-99.99,,2013-04-05 23:33:00,
2013-04-05 18:43:00,67.0,-99.9,30.03,North,359,10.0,13.0,-999,-99.99,,,-99.99,,2013-04-05 23:43:00,
2013-04-05 18:53:00,67.0,-99.9,30.02,North,6,11.0,14.0,-999,-99.99,,,-99.99,,2013-04-05 23:53:00,
2013-04-05 19:03:00,67.0,-99.9,30.03,North,0,9.0,11.0,-999,-99.99,,,-99.99,,2013-04-06 00:03:00,
2013-04-05 19:13:00,67.0,-99.9,30.03,North,356,8.0,10.0,-999,-99.99,,,-99.99,,2013-04-06 00:13:00,
2013-04-05 19:23:00,66.0,-99.9,30.03,North,0,9.0,10.0,-999,-99.99,,,-99.99,,2013-04-06 00:23:00,
2013-04-05 19:33:00,66.0,-99.9,30.03,North,7,8.0,11.0,-999,-99.99,,,-99.99,,2013-04-06 00:33:00,
2013-04-05 19:43:00,65.0,-99.9,30.04,North,356,7.0,9.0,-999,-99.99,,,-99.99,,2013-04-06 00:43:00,
2013-04-05 19:53:00,64.0,-99.9,30.04,North,-999,-999.0,-999.0,-999,-99.99,,,-99.99,,2013-04-06 00:53:00,
2013-04-05 20:02:00,64.0,-99.9,30.04,North,359,6.0,8.0,-999,-99.99,,,-99.99,,2013-04-06 01:02:00,
2013-04-05 20:13:00,64.0,-99.9,30.05,North,9,5.0,6.0,-999,-99.99,,,-99.99,,2013-04-06 01:13:00,
2013-04-05 20:23:00,63.0,-99.9,30.06,North,-999,-999.0,-999.0,-999,-99.99,,,-99.99,,2013-04-06 01:23:00,
2013-04-05 20:33:00,63.0,-99.9,30.06,North,359,4.0,6.0,-999,-99.99,,,-99.99,,2013-04-06 01:33:00,
2013-04-05 20:44:00,62.0,-99.9,30.07,NNW,329,5.0,6.0,-999,-99.99,,,-99.99,,2013-04-06 01:44:00,
2013-04-05 20:53:00,61.0,-99.9,30.07,North,-999,-999.0,-999.0,-999,-99.99,,,-99.99,,2013-04-06 01:53:00,
2013-04-05 21:03:00,61.0,-99.9,30.07,NNW,345,5.0,7.0,-999,-99.99,,,-99.99,,2013-04-06 02:03:00,
2013-04-05 21:13:00,61.0,-99.9,30.08,North,353,4.0,5.0,-999,-99.99,,,-99.99,,2013-04-06 02:13:00,
2013-04-05 21:23:00,60.0,-99.9,30.08,North,-999,-999.0,-999.0,-999,-99.99,,,-99.99,,2013-04-06 02:23:00,
2013-04-05 21:33:00,60.0,-99.9,30.08,North,7,4.0,5.0,-999,-99.99,,,-99.99,,2013-04-06 02:33:00,
2013-04-05 21:43:00,61.0,-99.9,30.09,North,359,5.0,6.0,-999,-99.99,,,-99.99,,2013-04-06 02:43:00,
2013-04-05 21:53:00,61.0,-99.9,30.09,North,5,4.0,5.0,-999,-99.99,,,-99.99,,2013-04-06 02:53:00,
2013-04-05 22:03:00,61.0,-99.9,30.09,North,9,5.0,6.0,-999,-99.99,,,-99.99,,2013-04-06 03:03:00,
2013-04-05 22:13:00,61.0,-99.9,30.10,NNE,12,5.0,6.0,-999,-99.99,,,-99.99,,2013-04-06 03:13:00,
2013-04-05 22:23:00,61.0,-99.9,30.10,North,-999,-999.0,-999.0,-999,-99.99,,,-99.99,,2013-04-06 03:23:00,
2013-04-05 22:34:00,60.0,-99.9,30.10,North,357,4.0,5.0,-999,-99.99,,,-99.99,,2013-04-06 03:34:00,
2013-04-05 22:44:00,59.0,-99.9,30.11,North,2,3.0,5.0,-999,-99.99,,,-99.99,,2013-04-06 03:44:00,
2013-04-05 22:55:00,59.0,-99.9,30.11,North,349,4.0,5.0,-999,-99.99,,,-99.99,,2013-04-06 03:55:00,
2013-04-05 23:05:00,59.0,-99.9,30.10,North,5,4.0,6.0,-999,-99.99,,,-99.99,,2013-04-06 04:05:00,
2013-04-05 23:14:00,59.0,-99.9,30.10,NE,45,2.0,3.0,-999,-99.99,,,-99.99,,2013-04-06 04:14:00,
2013-04-05 23:23:00,58.0,-99.9,30.10,NNE,23,3.0,4.0,-999,-99.99,,,-99.99,,2013-04-06 04:23:00,
2013-04-05 23:33:00,58.0,-99.9,30.10,NE,55,4.0,4.0,-999,-99.99,,,-99.99,,2013-04-06 04:33:00,
2013-04-05 23:43:00,58.0,-99.9,30.10,NE,54,3.0,4.0,-999,-99.99,,,-99.99,,2013-04-06 04:43:00,
2013-04-05 23:53:00,58.0,-99.9,30.10,NE,46,3.0,4.0,-999,-99.99,,,-99.99,,2013-04-06 04:53:00,